Time;durP1;ratioP1;P1;durP2;ratioP2;P2;SDS_P1;SDS_P2;PMS_P1;PMS_P2;Temp;Humidity;BMP_temperature;BMP_pressure;BME280_temperature;BME280_humidity;BME280_pressure;Samples;Min_cycle;Max_cycle;Signal;HPM_P1;HPM_P2
2021/06/24 00:02:04;;;;;;;0.60;0.60;;;23.10;54.40;;;;;;5034560;28;20021;-36
2021/06/24 00:04:30;;;;;;;0.68;0.68;;;23.10;55.30;;;;;;5038959;28;20033;-35
2021/06/24 00:06:57;;;;;;;0.70;0.68;;;23.10;55.90;;;;;;5037336;28;20093;-35
2021/06/24 00:09:23;;;;;;;0.85;0.85;;;23.10;56.80;;;;;;5036527;28;20021;-36
2021/06/24 00:11:49;;;;;;;0.70;0.70;;;23.10;57.50;;;;;;5037557;28;20549;-35
2021/06/24 00:14:15;;;;;;;0.60;0.60;;;23.00;57.80;;;;;;5034001;28;20033;-36
2021/06/24 00:16:41;;;;;;;0.80;0.80;;;23.10;58.20;;;;;;5033242;28;20042;-36
2021/06/24 00:19:07;;;;;;;0.77;0.77;;;23.10;58.50;;;;;;5034570;28;20044;-35
2021/06/24 00:21:34;;;;;;;0.80;0.80;;;23.10;58.70;;;;;;5035195;28;20107;-35
2021/06/24 00:24:00;;;;;;;0.80;0.80;;;23.10;59.10;;;;;;5031326;28;20041;-36
2021/06/24 00:26:26;;;;;;;0.75;0.75;;;23.10;59.20;;;;;;5031692;28;20056;-35
2021/06/24 00:28:52;;;;;;;0.73;0.73;;;23.10;59.40;;;;;;5033945;28;20067;-35
2021/06/24 00:31:18;;;;;;;0.50;0.50;;;23.10;59.60;;;;;;5035297;28;20033;-36
2021/06/24 00:33:44;;;;;;;0.68;0.68;;;23.10;59.80;;;;;;5029141;28;20034;-35
2021/06/24 00:36:11;;;;;;;0.85;0.60;;;23.10;59.90;;;;;;5032536;28;20499;-35
2021/06/24 00:38:37;;;;;;;0.60;0.60;;;23.10;60.10;;;;;;5033607;28;20387;-36
2021/06/24 00:41:04;;;;;;;0.60;0.60;;;23.10;60.30;;;;;;5032323;28;20022;-35
2021/06/24 00:43:30;;;;;;;1.65;0.65;;;23.10;60.40;;;;;;5030701;28;20068;-36
2021/06/24 00:45:57;;;;;;;0.70;0.70;;;23.20;60.60;;;;;;5031237;28;20029;-36
2021/06/24 00:48:23;;;;;;;0.70;0.70;;;23.20;60.70;;;;;;5029089;28;20610;-36
2021/06/24 00:50:49;;;;;;;0.80;0.80;;;23.20;61.00;;;;;;5032034;28;20021;-35
2021/06/24 00:53:15;;;;;;;0.60;0.60;;;23.20;61.00;;;;;;5028680;28;20033;-36
2021/06/24 00:55:45;;;;;;;0.80;0.80;;;23.20;61.20;;;;;;5035320;28;20025;-36
2021/06/24 00:58:16;;;;;;;0.70;0.65;;;23.20;61.10;;;;;;5030121;28;20025;-36
2021/06/24 01:00:44;;;;;;;0.60;0.60;;;23.20;61.30;;;;;;5028612;28;20045;-35
2021/06/24 01:03:10;;;;;;;0.68;0.68;;;23.20;61.20;;;;;;5026429;28;20021;-36
2021/06/24 01:05:37;;;;;;;0.70;0.70;;;23.20;62.20;;;;;;5033859;28;20025;-36
2021/06/24 01:08:04;;;;;;;0.70;0.70;;;23.20;61.50;;;;;;5033859;28;20037;-36
2021/06/24 01:10:31;;;;;;;0.70;0.70;;;23.20;61.70;;;;;;5037619;28;20033;-36
2021/06/24 01:12:57;;;;;;;0.70;0.70;;;23.20;61.80;;;;;;5028548;28;20065;-36
2021/06/24 01:15:23;;;;;;;0.90;0.90;;;23.20;62.00;;;;;;5035116;28;20411;-35
2021/06/24 01:17:49;;;;;;;0.60;0.60;;;23.20;61.90;;;;;;5032512;28;20084;-36
2021/06/24 01:20:17;;;;;;;0.55;0.55;;;23.20;62.20;;;;;;5031151;28;20026;-36
2021/06/24 01:22:43;;;;;;;0.70;0.70;;;23.20;62.20;;;;;;5035949;28;20025;-35
2021/06/24 01:25:10;;;;;;;1.25;0.85;;;23.20;62.10;;;;;;5036319;28;20025;-36
2021/06/24 01:27:36;;;;;;;0.70;0.70;;;23.20;62.10;;;;;;5030882;28;20093;-36
2021/06/24 01:30:03;;;;;;;0.70;0.70;;;23.20;62.00;;;;;;5031677;28;20026;-35
2021/06/24 01:32:30;;;;;;;0.57;0.57;;;23.20;62.30;;;;;;5035382;28;20017;-35
2021/06/24 01:34:56;;;;;;;0.80;0.80;;;23.20;62.40;;;;;;5037507;28;20040;-36
2021/06/24 01:37:22;;;;;;;0.63;0.63;;;23.20;62.60;;;;;;5028160;28;20509;-35
2021/06/24 01:39:48;;;;;;;0.77;0.77;;;23.30;62.50;;;;;;5033971;28;20030;-35
2021/06/24 01:42:14;;;;;;;0.80;0.80;;;23.20;62.80;;;;;;5025279;28;20089;-35
2021/06/24 01:44:41;;;;;;;0.70;0.70;;;23.20;62.70;;;;;;5033576;28;20036;-35
2021/06/24 01:47:09;;;;;;;0.80;0.80;;;23.20;62.60;;;;;;5037542;28;20029;-35
2021/06/24 01:49:35;;;;;;;0.70;0.70;;;23.30;62.70;;;;;;5036774;28;20030;-35
2021/06/24 01:52:01;;;;;;;1.05;0.80;;;23.30;63.20;;;;;;5026468;28;20060;-35
2021/06/24 01:54:28;;;;;;;0.90;0.90;;;23.30;63.10;;;;;;5027210;28;20036;-36
2021/06/24 01:56:54;;;;;;;0.80;0.63;;;23.20;63.30;;;;;;5026775;28;20148;-35
2021/06/24 01:59:20;;;;;;;1.52;0.60;;;23.20;63.50;;;;;;5031420;28;20364;-36
2021/06/24 02:01:46;;;;;;;1.05;0.80;;;23.20;63.70;;;;;;5030661;28;20037;-36
2021/06/24 02:04:12;;;;;;;0.85;0.85;;;23.20;63.80;;;;;;5039138;28;20017;-35
2021/06/24 02:06:39;;;;;;;1.20;0.70;;;23.20;63.80;;;;;;5028465;28;20036;-37
2021/06/24 02:09:05;;;;;;;0.68;0.68;;;23.20;64.00;;;;;;5031757;28;20097;-35
2021/06/24 02:11:32;;;;;;;0.90;0.90;;;23.20;63.90;;;;;;5032550;28;20029;-35
2021/06/24 02:13:58;;;;;;;0.68;0.68;;;23.20;64.10;;;;;;5026477;28;20271;-35
2021/06/24 02:16:24;;;;;;;0.60;0.60;;;23.20;64.10;;;;;;5030009;28;20091;-35
2021/06/24 02:18:50;;;;;;;0.60;0.60;;;23.20;64.00;;;;;;5032912;28;20034;-36
2021/06/24 02:21:17;;;;;;;0.70;0.70;;;23.20;63.90;;;;;;5026146;28;20053;-35
2021/06/24 02:23:43;;;;;;;0.90;0.90;;;23.20;64.20;;;;;;5029337;28;20029;-35
2021/06/24 02:26:09;;;;;;;0.70;0.70;;;23.20;63.90;;;;;;5030471;28;20048;-35
2021/06/24 02:28:35;;;;;;;0.70;0.70;;;23.30;64.00;;;;;;5028270;28;20041;-35
2021/06/24 02:31:01;;;;;;;0.63;0.63;;;23.20;63.90;;;;;;5026292;28;20038;-36
2021/06/24 02:33:28;;;;;;;0.63;0.63;;;23.20;63.50;;;;;;5030954;28;20034;-36
2021/06/24 02:35:58;;;;;;;0.70;0.68;;;23.30;63.80;;;;;;5031007;28;20017;-35
2021/06/24 02:38:24;;;;;;;1.27;0.75;;;23.20;64.20;;;;;;5035918;28;20430;-36
2021/06/24 02:40:52;;;;;;;0.60;0.60;;;23.20;64.50;;;;;;5028002;28;20030;-35
2021/06/24 02:43:17;;;;;;;;;;;23.20;64.80;;;;;;5042553;28;20025;-36
2021/06/24 02:45:44;;;;;;;0.70;0.70;;;23.20;64.80;;;;;;5035022;28;19995;-35
2021/06/24 02:48:10;;;;;;;1.00;1.00;;;23.20;65.00;;;;;;5040466;28;20038;-35
2021/06/24 02:50:37;;;;;;;0.80;0.80;;;23.20;65.10;;;;;;5031334;28;20049;-35
2021/06/24 02:53:03;;;;;;;0.67;0.60;;;23.20;65.30;;;;;;5033362;28;20732;-36
2021/06/24 02:55:32;;;;;;;0.95;0.90;;;23.20;65.50;;;;;;5039452;28;20045;-35
2021/06/24 02:57:59;;;;;;;0.77;0.77;;;23.20;65.50;;;;;;5039277;28;20022;-35
2021/06/24 03:00:25;;;;;;;0.70;0.70;;;23.20;65.60;;;;;;5039400;28;20041;-35
2021/06/24 03:02:52;;;;;;;0.80;0.80;;;23.20;65.60;;;;;;5041992;28;20068;-36
2021/06/24 03:05:19;;;;;;;0.70;0.70;;;23.20;65.70;;;;;;5035570;28;20030;-36
2021/06/24 03:07:45;;;;;;;0.80;0.80;;;23.20;65.70;;;;;;5032850;28;20049;-36
2021/06/24 03:10:12;;;;;;;0.95;0.85;;;23.20;65.50;;;;;;5037778;28;20030;-35
2021/06/24 03:12:38;;;;;;;1.58;0.85;;;23.20;65.40;;;;;;5033980;28;20457;-35
2021/06/24 03:15:05;;;;;;;0.80;0.80;;;23.20;64.60;;;;;;5038980;28;20063;-35
2021/06/24 03:17:31;;;;;;;0.80;0.60;;;23.20;65.20;;;;;;5042598;28;20522;-36
2021/06/24 03:19:58;;;;;;;1.00;1.00;;;23.20;64.80;;;;;;5030671;28;20724;-35
2021/06/24 03:22:24;;;;;;;1.58;0.88;;;23.20;64.60;;;;;;5034936;28;20014;-35
2021/06/24 03:24:50;;;;;;;0.70;0.70;;;23.20;64.80;;;;;;5038066;28;20033;-36
2021/06/24 03:27:16;;;;;;;0.60;0.60;;;23.20;64.90;;;;;;5035913;28;20025;-36
2021/06/24 03:29:42;;;;;;;0.70;0.70;;;23.20;65.10;;;;;;5031576;28;20045;-36
2021/06/24 03:32:09;;;;;;;0.70;0.70;;;23.20;65.60;;;;;;5040907;28;20022;-35
2021/06/24 03:34:35;;;;;;;0.70;0.70;;;23.20;65.90;;;;;;5036698;28;20029;-36
2021/06/24 03:37:01;;;;;;;0.90;0.90;;;23.20;66.10;;;;;;5035800;28;20040;-36
2021/06/24 03:39:27;;;;;;;0.73;0.73;;;23.20;66.80;;;;;;5033752;28;20022;-35
2021/06/24 03:41:53;;;;;;;0.70;0.70;;;23.10;66.20;;;;;;5033159;28;20032;-36
2021/06/24 03:44:19;;;;;;;0.77;0.70;;;23.10;66.40;;;;;;5027319;28;20094;-36
2021/06/24 03:46:46;;;;;;;0.70;0.70;;;23.10;66.50;;;;;;5031828;28;20030;-36
2021/06/24 03:49:12;;;;;;;0.75;0.75;;;23.10;66.50;;;;;;5031908;28;20037;-35
2021/06/24 03:51:38;;;;;;;0.80;0.80;;;23.10;66.70;;;;;;5034035;28;20475;-35
2021/06/24 03:54:04;;;;;;;0.70;0.70;;;23.10;66.60;;;;;;5038781;28;20036;-38
2021/06/24 03:56:30;;;;;;;0.90;0.90;;;23.10;66.70;;;;;;5030456;28;20029;-36
2021/06/24 03:58:57;;;;;;;0.70;0.70;;;23.10;66.30;;;;;;5038836;28;20029;-35
2021/06/24 04:01:23;;;;;;;0.88;0.77;;;23.10;66.20;;;;;;5036717;28;20030;-35
2021/06/24 04:03:49;;;;;;;0.90;0.90;;;23.10;65.90;;;;;;5033178;28;20057;-35
2021/06/24 04:06:15;;;;;;;1.30;0.90;;;23.10;66.10;;;;;;5031014;28;20021;-35
2021/06/24 04:08:42;;;;;;;0.83;0.83;;;23.10;65.80;;;;;;5034368;28;20094;-36
2021/06/24 04:11:08;;;;;;;0.85;0.85;;;23.10;66.20;;;;;;5038439;28;20269;-35
2021/06/24 04:13:34;;;;;;;0.90;0.90;;;23.10;66.00;;;;;;5034867;28;20044;-35
2021/06/24 04:16:01;;;;;;;0.77;0.77;;;23.10;65.80;;;;;;5024135;28;20744;-37
2021/06/24 04:18:27;;;;;;;0.90;0.90;;;23.10;65.80;;;;;;5037177;28;20052;-35
2021/06/24 04:20:53;;;;;;;0.90;0.90;;;23.10;66.40;;;;;;5036043;28;20033;-36
2021/06/24 04:23:19;;;;;;;0.85;0.85;;;23.10;66.60;;;;;;5036780;28;20391;-37
2021/06/24 04:25:45;;;;;;;0.68;0.68;;;23.10;66.80;;;;;;5034488;28;20034;-36
2021/06/24 04:28:11;;;;;;;0.70;0.70;;;23.10;66.80;;;;;;5029051;28;20118;-36
2021/06/24 04:30:38;;;;;;;0.90;0.90;;;23.10;66.90;;;;;;5035427;28;20022;-36
2021/06/24 04:33:04;;;;;;;0.90;0.90;;;23.10;67.10;;;;;;5029314;28;20053;-36
2021/06/24 04:35:30;;;;;;;1.00;1.00;;;23.10;67.10;;;;;;5037814;28;20095;-36
2021/06/24 04:37:57;;;;;;;1.00;1.00;;;23.10;67.10;;;;;;5038160;28;20025;-35
2021/06/24 04:40:23;;;;;;;1.17;1.05;;;23.10;67.20;;;;;;5030097;28;20052;-35
2021/06/24 04:42:49;;;;;;;0.95;0.95;;;23.00;67.20;;;;;;5036676;28;20030;-36
2021/06/24 04:45:15;;;;;;;1.17;0.90;;;23.00;67.00;;;;;;5032381;28;20034;-36
2021/06/24 04:47:43;;;;;;;1.00;1.00;;;23.00;67.10;;;;;;5030882;28;20037;-36
2021/06/24 04:50:10;;;;;;;0.93;0.88;;;23.00;67.00;;;;;;5028995;28;20055;-36
2021/06/24 04:52:36;;;;;;;0.80;0.80;;;23.00;67.00;;;;;;5040247;28;20093;-36
2021/06/24 04:55:03;;;;;;;1.77;0.90;;;23.00;67.00;;;;;;5034641;28;20662;-36
2021/06/24 04:57:29;;;;;;;1.15;1.00;;;23.00;66.80;;;;;;5031828;28;20029;-36
2021/06/24 04:59:55;;;;;;;0.75;0.75;;;23.00;66.70;;;;;;5035893;28;20090;-35
2021/06/24 05:02:22;;;;;;;0.90;0.90;;;23.00;66.80;;;;;;5035186;28;20036;-36
2021/06/24 05:04:49;;;;;;;0.80;0.80;;;23.00;66.90;;;;;;5035202;28;20025;-36
2021/06/24 05:07:16;;;;;;;1.00;1.00;;;23.00;67.00;;;;;;5035301;28;20094;-35
2021/06/24 05:09:42;;;;;;;1.00;1.00;;;23.00;67.20;;;;;;5032506;28;20052;-36
2021/06/24 05:12:09;;;;;;;0.90;0.90;;;23.00;67.40;;;;;;5037933;28;20474;-36
2021/06/24 05:14:36;;;;;;;2.83;1.25;;;23.00;67.50;;;;;;5030167;28;20036;-36
2021/06/24 05:17:03;;;;;;;0.85;0.85;;;23.00;67.60;;;;;;5028351;28;20103;-36
2021/06/24 05:19:29;;;;;;;;;;;23.00;67.60;;;;;;5031905;28;20263;-36
2021/06/24 05:21:55;;;;;;;1.20;1.10;;;23.00;67.70;;;;;;5030692;28;20473;-35
2021/06/24 05:24:21;;;;;;;0.88;0.88;;;22.90;67.70;;;;;;5028704;28;20030;-36
2021/06/24 05:26:48;;;;;;;1.08;0.98;;;22.90;67.70;;;;;;5033852;28;20052;-36
2021/06/24 05:29:14;;;;;;;0.95;0.95;;;22.90;67.90;;;;;;5028141;28;20076;-36
2021/06/24 05:31:40;;;;;;;1.10;1.10;;;22.90;67.80;;;;;;5037829;28;20025;-36
2021/06/24 05:34:06;;;;;;;1.00;1.00;;;22.90;68.50;;;;;;5032098;28;20026;-36
2021/06/24 05:36:33;;;;;;;0.90;0.90;;;22.90;67.80;;;;;;5029470;28;20029;-36
2021/06/24 05:39:00;;;;;;;1.40;1.27;;;22.90;68.40;;;;;;5037667;28;20025;-36
2021/06/24 05:41:27;;;;;;;1.00;1.00;;;22.90;67.60;;;;;;5023104;28;20581;-36
2021/06/24 05:43:53;;;;;;;1.30;1.20;;;22.90;67.90;;;;;;5032591;28;20143;-35
2021/06/24 05:46:19;;;;;;;1.20;1.10;;;22.90;67.70;;;;;;5039632;28;20096;-36
2021/06/24 05:48:45;;;;;;;0.95;0.90;;;22.90;67.60;;;;;;5033532;28;20038;-36
2021/06/24 05:51:12;;;;;;;1.38;1.27;;;22.90;67.70;;;;;;5028674;28;20049;-35
2021/06/24 05:53:38;;;;;;;1.30;1.20;;;22.90;67.90;;;;;;5033137;28;20038;-35
2021/06/24 05:56:04;;;;;;;1.45;1.27;;;22.90;67.80;;;;;;5027373;28;20052;-36
2021/06/24 05:58:31;;;;;;;1.13;1.03;;;22.90;68.00;;;;;;5028722;28;20034;-36
2021/06/24 06:00:58;;;;;;;1.33;1.23;;;22.90;68.20;;;;;;5031628;28;20054;-36
2021/06/24 06:03:24;;;;;;;1.25;1.13;;;22.90;68.20;;;;;;5034707;28;20029;-35
2021/06/24 06:05:51;;;;;;;1.30;1.20;;;22.90;68.30;;;;;;5035459;28;20128;-35
2021/06/24 06:08:17;;;;;;;1.15;1.10;;;22.90;68.50;;;;;;5030002;28;20034;-37
2021/06/24 06:10:43;;;;;;;1.33;1.23;;;22.90;68.50;;;;;;5030764;28;20026;-36
2021/06/24 06:13:10;;;;;;;1.30;1.20;;;22.90;68.40;;;;;;5035472;28;20265;-36
2021/06/24 06:15:39;;;;;;;1.00;0.98;;;22.90;68.60;;;;;;5029142;28;20026;-35
2021/06/24 06:18:13;;;;;;;1.38;1.27;;;22.90;68.60;;;;;;5029281;28;20038;-36
2021/06/24 06:20:39;;;;;;;1.20;1.13;;;22.90;68.50;;;;;;5031536;28;20036;-36
2021/06/24 06:23:05;;;;;;;1.00;1.00;;;22.80;68.20;;;;;;5032675;28;20076;-36
2021/06/24 06:25:31;;;;;;;1.35;1.05;;;22.80;68.00;;;;;;5032000;28;20069;-36
2021/06/24 06:27:58;;;;;;;1.65;1.35;;;22.80;68.10;;;;;;5028316;28;20022;-36
2021/06/24 06:30:26;;;;;;;1.20;1.10;;;22.90;68.00;;;;;;5026623;28;20080;-35
2021/06/24 06:32:52;;;;;;;1.10;1.10;;;22.80;67.90;;;;;;5036355;28;20274;-35
2021/06/24 06:35:18;;;;;;;1.20;1.10;;;22.80;67.90;;;;;;5032414;28;20033;-41
2021/06/24 06:37:44;;;;;;;1.30;1.20;;;22.80;67.90;;;;;;5031912;28;20041;-36
2021/06/24 06:40:12;;;;;;;1.30;1.20;;;22.80;68.20;;;;;;5028814;28;20022;-36
2021/06/24 06:42:39;;;;;;;1.00;1.00;;;22.80;68.20;;;;;;5034244;28;20034;-36
2021/06/24 06:45:06;;;;;;;1.33;1.23;;;22.80;68.80;;;;;;5030369;28;20064;-37
2021/06/24 06:47:32;;;;;;;1.50;1.40;;;22.80;69.20;;;;;;5025360;28;20034;-36
2021/06/24 06:49:58;;;;;;;1.25;1.20;;;22.80;69.20;;;;;;5039578;28;20067;-36
2021/06/24 06:52:25;;;;;;;1.45;1.00;;;22.80;69.20;;;;;;5027957;28;20022;-35
2021/06/24 06:54:51;;;;;;;1.15;1.13;;;22.80;69.00;;;;;;5032625;28;20072;-36
2021/06/24 06:57:17;;;;;;;1.38;1.27;;;22.80;69.10;;;;;;5032737;28;20032;-35
2021/06/24 06:59:43;;;;;;;1.20;1.10;;;22.80;69.40;;;;;;5032572;28;20027;-36
2021/06/24 07:02:10;;;;;;;1.30;1.20;;;22.80;69.20;;;;;;5028963;28;20029;-35
2021/06/24 07:04:36;;;;;;;1.10;1.10;;;22.80;69.20;;;;;;5030346;28;20101;-36
2021/06/24 07:07:03;;;;;;;1.40;1.30;;;22.70;68.90;;;;;;5025680;28;20097;-36
2021/06/24 07:09:29;;;;;;;1.20;1.10;;;22.70;68.80;;;;;;5029572;28;20042;-36
2021/06/24 07:11:56;;;;;;;1.38;1.20;;;22.70;68.60;;;;;;5027231;28;20095;-36
2021/06/24 07:14:22;;;;;;;1.48;1.38;;;22.70;68.70;;;;;;5024010;28;20038;-35
2021/06/24 07:16:48;;;;;;;1.38;1.27;;;22.70;69.00;;;;;;5034887;28;20108;-36
2021/06/24 07:19:14;;;;;;;1.63;1.38;;;22.80;68.70;;;;;;5032124;28;20038;-35
2021/06/24 07:21:41;;;;;;;1.33;1.23;;;22.70;68.70;;;;;;5034942;28;20046;-35
2021/06/24 07:24:07;;;;;;;1.00;1.00;;;22.70;68.60;;;;;;5030849;28;20072;-36
2021/06/24 07:26:34;;;;;;;1.40;1.27;;;22.70;68.70;;;;;;5030305;28;20552;-35
2021/06/24 07:29:00;;;;;;;1.13;1.10;;;22.80;69.00;;;;;;5031178;28;20041;-36
2021/06/24 07:31:26;;;;;;;1.27;1.17;;;22.70;69.00;;;;;;5036253;28;20040;-35
2021/06/24 07:33:53;;;;;;;1.42;1.33;;;22.70;69.40;;;;;;5032117;28;20063;-36
2021/06/24 07:36:19;;;;;;;1.30;1.20;;;22.70;69.20;;;;;;5035248;28;20030;-37
2021/06/24 07:38:45;;;;;;;1.15;1.10;;;22.70;69.50;;;;;;5033329;28;20041;-36
2021/06/24 07:41:11;;;;;;;1.45;1.27;;;22.70;69.70;;;;;;5032395;28;20029;-36
2021/06/24 07:43:37;;;;;;;1.50;1.30;;;22.70;70.40;;;;;;5034580;28;20026;-36
2021/06/24 07:46:03;;;;;;;1.30;1.20;;;22.70;69.60;;;;;;5032105;28;20477;-35
2021/06/24 07:48:30;;;;;;;1.30;1.20;;;22.70;69.80;;;;;;5037088;28;20025;-36
2021/06/24 07:50:56;;;;;;;1.25;1.15;;;22.70;69.80;;;;;;5031603;28;20034;-36
2021/06/24 07:53:22;;;;;;;1.45;1.35;;;22.70;69.50;;;;;;5035718;28;21836;-36
2021/06/24 07:55:48;;;;;;;1.58;1.48;;;22.70;69.40;;;;;;5035373;28;20033;-36
2021/06/24 07:58:15;;;;;;;1.30;1.20;;;22.70;69.30;;;;;;5034114;28;20028;-36
2021/06/24 08:00:41;;;;;;;1.40;1.30;;;22.70;69.20;;;;;;5035012;28;20093;-35
2021/06/24 08:03:07;;;;;;;1.70;1.60;;;22.70;69.20;;;;;;5037268;28;20064;-35
2021/06/24 08:05:34;;;;;;;1.90;1.10;;;22.70;69.20;;;;;;5028103;28;20018;-36
2021/06/24 08:08:00;;;;;;;1.00;1.00;;;22.70;69.10;;;;;;5035617;28;20033;-36
2021/06/24 08:10:26;;;;;;;1.25;1.08;;;22.70;69.10;;;;;;5031489;28;20584;-35
2021/06/24 08:12:52;;;;;;;1.38;1.27;;;22.70;69.10;;;;;;5030833;28;20038;-36
2021/06/24 08:15:20;;;;;;;1.25;1.15;;;22.70;69.10;;;;;;5031948;28;20017;-35
2021/06/24 08:17:47;;;;;;;1.50;1.40;;;22.70;69.30;;;;;;5037573;28;20081;-36
2021/06/24 08:20:14;;;;;;;2.40;1.40;;;22.70;69.70;;;;;;5031590;28;20085;-36
2021/06/24 08:22:40;;;;;;;1.70;1.60;;;22.70;70.20;;;;;;5031704;28;20126;-36
2021/06/24 08:25:07;;;;;;;1.40;1.30;;;22.70;70.30;;;;;;5035519;28;20079;-35
2021/06/24 08:27:34;;;;;;;1.55;1.42;;;22.60;70.10;;;;;;5012633;28;20029;-35
2021/06/24 08:30:01;;;;;;;1.55;1.40;;;22.70;70.30;;;;;;5032599;28;20044;-35
2021/06/24 08:32:27;;;;;;;1.27;1.23;;;22.60;70.40;;;;;;5027707;28;20025;-36
2021/06/24 08:34:53;;;;;;;1.20;1.10;;;22.60;70.30;;;;;;5035966;28;20873;-36
2021/06/24 08:37:20;;;;;;;1.50;1.40;;;22.60;70.40;;;;;;5038410;28;20022;-35
2021/06/24 08:39:48;;;;;;;1.60;1.50;;;22.60;70.40;;;;;;5033062;28;20029;-36
2021/06/24 08:42:15;;;;;;;1.52;1.42;;;22.60;70.40;;;;;;5030624;28;20503;-36
2021/06/24 08:44:44;;;;;;;1.50;1.40;;;22.60;70.50;;;;;;5040458;28;20100;-36
2021/06/24 08:47:16;;;;;;;1.50;1.40;;;22.60;70.10;;;;;;5022154;28;20037;-35
2021/06/24 08:49:43;;;;;;;1.40;1.30;;;22.70;69.90;;;;;;5030737;28;20502;-36
2021/06/24 08:52:10;;;;;;;1.42;1.33;;;22.70;69.80;;;;;;5026584;28;20057;-36
2021/06/24 08:54:37;;;;;;;1.50;1.40;;;22.70;69.80;;;;;;5033293;28;20056;-36
2021/06/24 08:57:03;;;;;;;1.40;1.30;;;22.70;69.80;;;;;;5027794;28;20062;-35
2021/06/24 08:59:29;;;;;;;1.40;1.30;;;22.70;69.80;;;;;;5032594;28;20025;-35
2021/06/24 09:01:57;;;;;;;2.90;1.70;;;22.70;69.80;;;;;;5030471;28;20034;-36
2021/06/24 09:04:27;;;;;;;1.50;1.40;;;22.70;70.00;;;;;;5039874;28;20025;-36
2021/06/24 09:06:54;;;;;;;1.40;1.30;;;22.70;70.40;;;;;;5033848;28;20113;-36
2021/06/24 09:09:26;;;;;;;1.60;1.50;;;22.70;70.60;;;;;;5035520;28;20045;-35
2021/06/24 09:12:06;;;;;;;1.80;1.70;;;22.70;70.70;;;;;;5031321;28;20046;-36
2021/06/24 09:14:49;;;;;;;1.45;1.35;;;22.70;71.00;;;;;;5026237;28;20030;-35
2021/06/24 09:17:34;;;;;;;2.10;1.95;;;22.70;71.20;;;;;;5029999;28;20061;-35
2021/06/24 09:20:03;;;;;;;1.67;1.58;;;22.70;71.10;;;;;;5030894;28;20048;-36
2021/06/24 09:22:29;;;;;;;1.85;1.75;;;22.70;71.20;;;;;;5033818;28;20030;-36
2021/06/24 09:24:55;;;;;;;1.90;1.80;;;22.70;71.10;;;;;;5037940;28;20119;-36
2021/06/24 09:27:28;;;;;;;1.70;1.60;;;22.70;71.40;;;;;;5034527;28;20809;-36
2021/06/24 09:30:08;;;;;;;2.30;1.85;;;22.70;72.00;;;;;;5027172;28;20072;-36
2021/06/24 09:32:48;;;;;;;1.83;1.70;;;22.70;71.20;;;;;;5032074;28;20030;-36
2021/06/24 09:35:25;;;;;;;2.05;1.58;;;22.70;70.80;;;;;;5025848;28;20398;-36
2021/06/24 09:38:11;;;;;;;1.67;1.57;;;22.70;70.60;;;;;;5031506;28;20038;-36
2021/06/24 09:40:53;;;;;;;2.03;1.88;;;22.70;70.70;;;;;;5031666;28;20566;-35
2021/06/24 09:43:28;;;;;;;1.80;1.70;;;22.70;70.60;;;;;;5033301;28;20049;-36
2021/06/24 09:46:15;;;;;;;1.63;1.52;;;22.70;70.60;;;;;;5032312;28;20431;-36
2021/06/24 09:48:43;;;;;;;2.25;2.00;;;22.70;70.80;;;;;;5033500;28;20104;-36
2021/06/24 09:51:13;;;;;;;3.13;1.80;;;22.70;70.90;;;;;;5037029;28;20037;-35
2021/06/24 09:53:55;;;;;;;1.85;1.73;;;22.70;71.50;;;;;;5029759;28;20041;-36
2021/06/24 09:56:30;;;;;;;1.98;1.85;;;22.70;71.60;;;;;;5028679;28;20093;-35
2021/06/24 09:58:57;;;;;;;1.90;1.80;;;22.70;71.20;;;;;;5036780;28;20038;-35
2021/06/24 10:01:31;;;;;;;1.98;1.88;;;22.70;71.70;;;;;;5032704;28;20061;-36
2021/06/24 10:03:58;;;;;;;1.98;1.88;;;22.70;71.30;;;;;;5030424;28;20038;-36
2021/06/24 10:06:24;;;;;;;;;;;22.70;71.90;;;;;;5033427;28;20121;-35
2021/06/24 10:08:52;;;;;;;1.60;1.50;;;22.70;71.70;;;;;;5025350;28;19956;-36
2021/06/24 10:11:18;;;;;;;1.98;1.77;;;22.70;71.80;;;;;;5033204;28;20020;-35
2021/06/24 10:13:45;;;;;;;1.88;1.77;;;22.70;71.60;;;;;;5034299;28;20097;-35
2021/06/24 10:16:11;;;;;;;2.17;1.97;;;22.70;71.50;;;;;;5029339;28;20043;-35
2021/06/24 10:18:37;;;;;;;2.05;1.90;;;22.70;71.40;;;;;;5021707;28;20743;-36
2021/06/24 10:21:03;;;;;;;1.95;1.83;;;22.70;71.20;;;;;;5030785;28;20021;-36
2021/06/24 10:23:30;;;;;;;2.33;2.13;;;22.70;71.60;;;;;;5032607;28;20025;-37
2021/06/24 10:25:56;;;;;;;2.40;1.95;;;22.70;71.40;;;;;;5036846;28;20060;-36
2021/06/24 10:28:22;;;;;;;2.03;1.90;;;22.80;71.40;;;;;;5034210;28;20039;-35
2021/06/24 10:30:48;;;;;;;2.25;2.05;;;22.80;71.30;;;;;;5024580;28;20033;-36
2021/06/24 10:33:16;;;;;;;1.90;1.67;;;22.80;71.70;;;;;;5031918;28;20029;-36
2021/06/24 10:35:42;;;;;;;;;;;22.80;71.90;;;;;;5029097;28;20414;-36
2021/06/24 10:38:09;;;;;;;2.15;1.80;;;22.80;72.00;;;;;;5030201;28;19913;-36
2021/06/24 10:40:37;;;;;;;2.00;1.90;;;22.80;71.90;;;;;;5030074;28;20046;-36
2021/06/24 10:43:05;;;;;;;2.30;2.10;;;22.80;72.20;;;;;;5031366;28;20036;-35
2021/06/24 10:45:31;;;;;;;2.00;1.80;;;22.80;71.80;;;;;;5034100;28;20093;-35
2021/06/24 10:47:58;;;;;;;2.15;2.05;;;22.80;72.10;;;;;;5028561;28;20049;-36
2021/06/24 10:50:27;;;;;;;1.80;1.70;;;22.80;71.80;;;;;;5028443;28;20025;-36
2021/06/24 10:52:54;;;;;;;2.20;1.98;;;22.80;71.80;;;;;;5024624;28;20062;-35
2021/06/24 10:55:39;;;;;;;2.08;1.90;;;22.80;72.50;;;;;;5035433;28;20028;-36
2021/06/24 10:58:18;;;;;;;3.88;2.00;;;22.80;72.10;;;;;;5032566;28;20030;-36
2021/06/24 11:00:54;;;;;;;3.38;2.30;;;22.80;72.30;;;;;;5032672;28;20034;-35
2021/06/24 11:03:26;;;;;;;3.20;2.10;;;22.80;72.50;;;;;;5026960;28;20034;-36
2021/06/24 11:05:54;;;;;;;2.10;1.95;;;22.80;72.20;;;;;;5032329;28;20091;-36
2021/06/24 11:08:27;;;;;;;2.15;1.65;;;22.80;72.40;;;;;;5034639;28;20081;-36
2021/06/24 11:10:57;;;;;;;3.92;2.10;;;22.80;72.70;;;;;;5030524;28;20022;-36
2021/06/24 11:13:39;;;;;;;2.20;2.00;;;22.90;72.70;;;;;;5036754;28;20077;-36
2021/06/24 11:16:20;;;;;;;2.13;1.92;;;22.90;72.70;;;;;;5045524;28;20093;-35
2021/06/24 11:18:53;;;;;;;2.90;2.13;;;22.90;72.90;;;;;;5045613;28;20684;-35
2021/06/24 11:21:29;;;;;;;3.10;2.13;;;22.90;73.30;;;;;;5045231;28;20029;-36
2021/06/24 11:24:00;;;;;;;2.42;2.22;;;22.90;73.00;;;;;;5045080;28;20037;-38
2021/06/24 11:26:26;;;;;;;2.00;1.80;;;22.90;73.20;;;;;;5045368;28;20030;-36
2021/06/24 11:28:55;;;;;;;2.53;2.10;;;22.90;72.70;;;;;;5045144;28;20032;-36
2021/06/24 11:31:50;;;;;;;2.40;2.20;;;22.90;72.90;;;;;;5045297;28;20083;-36
2021/06/24 11:36:48;;;;;;;3.35;2.20;;;22.90;73.10;;;;;;5043248;28;20022;-36
2021/06/24 11:39:23;;;;;;;1.90;1.80;;;22.90;72.70;;;;;;5039914;28;20029;-36
2021/06/24 11:42:09;;;;;;;2.13;1.88;;;22.90;73.40;;;;;;5044968;28;20021;-36
2021/06/24 11:44:37;;;;;;;2.15;2.05;;;22.90;73.30;;;;;;5045179;28;20022;-36
2021/06/24 11:47:10;;;;;;;2.10;1.90;;;22.90;73.30;;;;;;5044972;28;20038;-36
2021/06/24 12:03:03;;;;;;;2.67;1.95;;;22.90;73.10;;;;;;5024869;28;20053;-36
2021/06/24 12:04:40;;;;;;;2.08;1.88;;;22.90;73.00;;;;;;5024703;28;20061;-36
2021/06/24 12:07:10;;;;;;;2.30;2.10;;;22.90;73.30;;;;;;5032501;28;20402;-35
2021/06/24 12:09:42;;;;;;;2.40;2.20;;;23.00;73.20;;;;;;5042608;28;20757;-36
2021/06/24 12:12:12;;;;;;;2.38;2.17;;;23.00;73.10;;;;;;5044509;28;20014;-36
2021/06/24 12:14:42;;;;;;;4.22;1.90;;;23.00;73.20;;;;;;5044338;28;20030;-36
2021/06/24 12:17:12;;;;;;;2.75;1.98;;;23.00;73.30;;;;;;5044433;28;20042;-36
2021/06/24 12:19:47;;;;;;;1.95;1.80;;;23.00;73.40;;;;;;5044308;28;20029;-35
2021/06/24 12:22:15;;;;;;;2.20;1.98;;;23.00;73.50;;;;;;5044256;28;20100;-35
2021/06/24 12:24:42;;;;;;;2.45;2.20;;;23.00;73.70;;;;;;5029601;28;20026;-36
2021/06/24 12:27:19;;;;;;;2.20;2.00;;;23.00;73.40;;;;;;5024393;28;20018;-36
2021/06/24 12:29:46;;;;;;;2.13;1.77;;;23.00;73.20;;;;;;5024322;28;20129;-36
2021/06/24 12:32:12;;;;;;;3.13;2.28;;;23.00;73.30;;;;;;5024378;28;20025;-36
2021/06/24 12:34:38;;;;;;;2.45;2.00;;;23.00;73.10;;;;;;5022449;28;20029;-36
2021/06/24 12:37:04;;;;;;;2.10;1.90;;;23.00;73.30;;;;;;5024161;28;20026;-36
2021/06/24 12:39:30;;;;;;;2.33;2.10;;;23.00;73.30;;;;;;5041050;28;20051;-36
2021/06/24 12:41:56;;;;;;;2.45;2.05;;;23.00;73.30;;;;;;5043900;28;20108;-36
2021/06/24 12:44:23;;;;;;;1.90;1.70;;;23.00;73.40;;;;;;5042496;28;20033;-36
2021/06/24 12:46:49;;;;;;;2.13;1.92;;;23.00;73.60;;;;;;5042368;28;20097;-36
2021/06/24 12:49:16;;;;;;;1.92;1.73;;;23.00;73.40;;;;;;5043387;28;20041;-36
2021/06/24 12:51:42;;;;;;;;;;;23.10;73.30;;;;;;5044165;28;20089;-36
2021/06/24 12:54:18;;;;;;;1.98;1.80;;;23.10;73.40;;;;;;5043092;28;19912;-36
2021/06/24 12:56:46;;;;;;;2.70;1.85;;;23.10;73.50;;;;;;5037064;28;20030;-36
2021/06/24 12:59:22;;;;;;;2.33;1.75;;;23.10;73.70;;;;;;5023761;28;20044;-35
2021/06/24 13:01:50;;;;;;;2.28;1.70;;;23.10;73.30;;;;;;5027607;28;20086;-36
2021/06/24 13:04:16;;;;;;;;;;;23.10;73.40;;;;;;5023765;28;20030;-36
2021/06/24 13:06:44;;;;;;;2.22;1.67;;;23.10;73.30;;;;;;5025263;28;19917;-36